LIMCLDDU

Guest
Details From LIMC - Milano Malpensa
To LDDU - Dubrovnik
Flight Number -
Tags Generated
Created
Modified
Stats Distance 450 nm / 833 km
Max Altitude 0 ft / 0 m
Waypoints 4
Social Downloads 4
Likes 0
Share VATSIM

Download

Looking for another format? Having issues loading an existing format? Contact us
Advertisement - Login to hide

Notes

Generated

Route

LIMC NIKOL DBK04 LDDU

ID Type Via Altitude Latitude Longitude Leg Dist Tot Dist Heading (true) Name
O LIMC APT - 0 ft / 0 m 45.65044˚ 8.72841˚ - 0 nm - -
NIKOL FIX - 0 ft / 0 m 44.22194˚ 13.68611˚ 227 nm 227 nm 110° / 114° -
DBK04 FIX - 0 ft / 0 m 42.58304˚ 18.21164˚ 220 nm 448 nm 115° / 118° -
O LDDU APT - 0 ft / 0 m 42.56986˚ 18.24681˚ 1 nm 449 nm 117° / 117° -

Altitude Profile

Advertisement - Login to hide

Weather


0- 5 10 15 20 25 30 35+ Temperature / ° C

Clouds and Precipitation
Forecast for 2017-12-18 18:00 UTC. Updated 2 hours ago

Ground ~20,000 ft ~40,000 ft Winds

LIMC

Details ICAO LIMC (MXP)
Name Milano Malpensa
Region Italy
Timezone Europe/Rome (UTC+1.0)
Stats Elevation 767 ft / 234 m (AMSL)
Location 45.630606° 8.728111°
Runways 2
Magnetic Variation 2.378° E

METAR

LIMC 181820Z VRB01KT CAVOK M03/M08 Q1024 NOSIG

Decode

TAF

TAF LIMC 181700Z 1818/1924 VRB05KT CAVOK

Decode

Departure Runways

ID Width Length Bearing (true) Bearing (mag) Surface Threshold Offset Overrun Length
17L 197 ft / 60 m 12,869 ft / 3,923 m 169.62° 167.24° Asphalt 3,094 ft / 943 m 0 ft / 0 m
17R 197 ft / 60 m 12,869 ft / 3,923 m 169.62° 167.24° Asphalt 0 ft / 0 m 0 ft / 0 m
35L 197 ft / 60 m 12,869 ft / 3,923 m 349.62° 347.24° Asphalt 1,329 ft / 405 m 0 ft / 0 m
35R 197 ft / 60 m 12,869 ft / 3,923 m 349.62° 347.24° Asphalt 0 ft / 0 m 0 ft / 0 m

LDDU

Details ICAO LDDU (DBV)
Name DUBROVNIK
Region Croatia
Timezone Europe/Zagreb (UTC+1.0)
Stats Elevation 527 ft / 161 m (AMSL)
Location 42.562840° 18.264499°
Runways 1
Magnetic Variation 4.101° E

METAR

LDDU 181830Z 03022KT 360V060 CAVOK 05/M08 Q1019 TEMPO 02022G32KT

Decode

TAF

TAF TAF LDDU 181725Z 1818/1918 02020KT 9999 FEW070 TX06/1913Z TN03/1906Z TEMPO 1818/1906 02022G34KT BECMG 1907/1909 02010KT TEMPO 1909/1914 VRB09KT

Decode

Destination Runways

ID Width Length Bearing (true) Bearing (mag) Surface Threshold Offset Overrun Length
12 148 ft / 45 m 10,803 ft / 3,293 m 118.30° 114.20° Asphalt 488 ft / 149 m 100 ft / 30 m
30 148 ft / 45 m 10,803 ft / 3,293 m 298.33° 294.23° Asphalt 0 ft / 0 m 100 ft / 30 m

Approach Navaids

Runway Type Ident Frequency Range Bearing (true) Bearing (mag) Slope Elevation
12 Localiser IDU 110.10 MHz 25 nm / 46 km 118.21° 114.11° - 469 ft / 143 m (AMSL)
12 Glidescope IDU 110.10 MHz 25 nm / 46 km 118.21° 114.11° 3.00° 502 ft / 153 m (AMSL)

Popular Alternatives